Serval — J8B4154 — position and weather

sailwx.info

Track history (hours):
 
Tides and Currents Weather Stations Pressure Air Temp Water Temp Dewpoint Dewpoint Depression Visibility Wind Speed Wind Dir Waves Ship Positions

Serval

Last reported at 2015-Jul-04 23:33 UTC. Time now 2015-Jul-05 00:12 UTC.
Position N 53°32' E 006°43'.

Length 30 m; draft 4.8 m.

Type: . MMSI: 377103000.

Date/timePositionNaut miles runAvg speedWind from/ knotsBaromVisibWave heightAir tempDewpointWater temp
2015-Jul-04 23:33N 53°32' E 006°43'2 1.5
2015-Jul-04 22:33N 53°32' E 006°46'1 0.7
2015-Jul-04 21:33N 53°32' E 006°45'0 0.2
2015-Jul-04 20:33N 53°32' E 006°45'0 0.2
2015-Jul-04 19:33N 53°32' E 006°45'1 0.7
2015-Jul-04 18:33N 53°32' E 006°44'1 1.5
2015-Jul-04 17:33N 53°31' E 006°46'2 1.6
2015-Jul-04 16:33N 53°32' E 006°44'2 1.8
2015-Jul-04 15:33N 53°31' E 006°47'0 0.1
2015-Jul-04 14:33N 53°31' E 006°46'0 0.3
2015-Jul-04 13:33N 53°31' E 006°46'1 0.7
2015-Jul-04 12:33N 53°31' E 006°47'0 0.2
2015-Jul-04 11:33N 53°31' E 006°47'1 0.6
2015-Jul-04 10:33N 53°31' E 006°46'1 0.6
2015-Jul-04 09:33N 53°31' E 006°47'1 1.0
2015-Jul-04 08:33N 53°32' E 006°45'0 0.2
2015-Jul-04 07:33N 53°32' E 006°45'0 0.4
2015-Jul-04 06:33N 53°31' E 006°46'0 0.3
2015-Jul-04 05:33N 53°32' E 006°45'0 0.2
2015-Jul-04 04:33N 53°32' E 006°45'0 0.3
2015-Jul-04 03:33N 53°32' E 006°45'2 2.1
2015-Jul-04 02:33N 53°30' E 006°48'3 3.2
2015-Jul-04 01:33N 53°27' E 006°50'0 0.0
2015-Jul-04 00:30N 53°27' E 006°50'0 0.0
2015-Jul-03 23:24N 53°27' E 006°50'0 0.0
2015-Jul-03 22:33N 53°27' E 006°50'0 0.0
2015-Jul-03 21:33N 53°27' E 006°50'0 0.0
2015-Jul-03 20:33N 53°27' E 006°50'0 0.0
2015-Jul-03 19:33N 53°27' E 006°50'0 0.0
2015-Jul-03 18:33N 53°27' E 006°50'0 0.0
2015-Jul-03 17:33N 53°27' E 006°50'0 0.0
2015-Jul-03 16:24N 53°27' E 006°50'0 0.0
2015-Jul-03 15:30N 53°27' E 006°50'0 0.0
2015-Jul-03 14:30N 53°27' E 006°50'0 0.0
2015-Jul-03 13:33N 53°27' E 006°50'0 0.0
2015-Jul-03 12:33N 53°27' E 006°50'0 0.0
2015-Jul-03 11:33N 53°27' E 006°50'0 0.0
2015-Jul-03 10:33N 53°27' E 006°50'0 0.3
2015-Jul-03 09:33N 53°27' E 006°50'7 7.2
2015-Jul-03 08:33N 53°33' E 006°42'16 1.3
2015-Jul-02 20:05N 53°43' E 006°20'4 5.3
2015-Jul-02 19:21N 53°46' E 006°19'10 0.6
2015-Jul-02 03:20N 53°54' E 006°07'2 2.7
2015-Jul-02 02:33N 53°54' E 006°10'1 0.5
2015-Jul-02 01:32N 53°54' E 006°09'1 0.5
2015-Jul-02 00:26N 53°54' E 006°09'3 2.5
2015-Jul-01 23:21N 53°54' E 006°13'2 2.4
2015-Jul-01 22:33N 53°53' E 006°10'1 0.1
2015-Jul-01 11:06N 53°52' E 006°10'11 0.9
2015-Jun-30 23:17N 53°41' E 006°15'2 1.2
2015-Jun-30 21:18N 53°42' E 006°19'1 1.3
2015-Jun-30 20:23N 53°43' E 006°21'2 2.6
2015-Jun-30 19:30N 53°42' E 006°17'1 0.7
2015-Jun-30 18:33N 53°42' E 006°18'1 1.2
2015-Jun-30 17:31N 53°43' E 006°19'3 2.9
2015-Jun-30 16:19N 53°46' E 006°16'1 1.1
2015-Jun-30 15:25N 53°46' E 006°14'2 2.6
2015-Jun-30 14:33N 53°44' E 006°14'3 2.4
2015-Jun-30 13:31N 53°41' E 006°17'1 0.1
2015-Jun-30 09:10N 53°41' E 006°18'28 1.8
2015-Jun-29 17:12N 53°47' E 007°04'1 1.0
2015-Jun-29 16:33N 53°47' E 007°03'0 0.4
2015-Jun-29 15:28N 53°47' E 007°02'0 0.5
2015-Jun-29 14:32N 53°47' E 007°03'3 2.5
2015-Jun-29 13:28N 53°48' E 007°07'3 0.2
2015-Jun-29 00:23N 53°48' E 007°03'2 0.5
2015-Jun-28 20:23N 53°48' E 007°06'24 0.6
2015-Jun-27 06:27N 53°38' E 006°30'7 7.7
2015-Jun-27 05:33N 53°34' E 006°39'6 6.2
2015-Jun-27 04:33N 53°31' E 006°47'4 4.0
2015-Jun-27 03:33N 53°27' E 006°50'0 0.0
2015-Jun-27 02:33N 53°27' E 006°50'0 0.0
2015-Jun-27 01:33N 53°27' E 006°50'0 0.0
2015-Jun-27 00:33N 53°27' E 006°50'0 0.0
2015-Jun-26 23:33N 53°27' E 006°50'0 0.0
2015-Jun-26 22:33N 53°27' E 006°50'0 0.0
2015-Jun-26 21:33N 53°27' E 006°50'0 0.0
2015-Jun-26 20:33N 53°27' E 006°50'0 0.0
2015-Jun-26 19:33N 53°27' E 006°50'0 0.0
2015-Jun-26 18:33N 53°27' E 006°50'0 0.0
2015-Jun-26 17:33N 53°27' E 006°50'0 0.0
2015-Jun-26 16:33N 53°27' E 006°50'0 0.0
2015-Jun-26 15:33N 53°27' E 006°50'0 0.0
2015-Jun-26 14:33N 53°27' E 006°50'0 0.2
2015-Jun-26 13:33N 53°27' E 006°50'1 0.7
2015-Jun-26 12:33N 53°27' E 006°50'0 0.0
2015-Jun-26 11:33N 53°27' E 006°50'0 0.0
2015-Jun-26 10:33N 53°27' E 006°50'0 0.0
2015-Jun-26 09:33N 53°27' E 006°50'0 0.0
2015-Jun-26 08:33N 53°27' E 006°50'0 0.0
2015-Jun-26 07:33N 53°27' E 006°50'0 0.0
2015-Jun-26 06:31N 53°27' E 006°50'0 0.0
2015-Jun-26 05:33N 53°27' E 006°50'0 0.0
2015-Jun-26 04:33N 53°27' E 006°50'0 0.0
2015-Jun-26 03:33N 53°27' E 006°50'0 0.0
2015-Jun-26 02:33N 53°27' E 006°50'0 0.0
2015-Jun-26 01:33N 53°27' E 006°50'0 0.0
2015-Jun-26 00:33N 53°27' E 006°50'0 0.0
2015-Jun-25 23:33N 53°27' E 006°50'0 0.0
2015-Jun-25 22:33N 53°27' E 006°50'0 0.0
2015-Jun-25 21:33N 53°27' E 006°50'0 0.0
2015-Jun-25 20:33N 53°27' E 006°50'0 0.0
2015-Jun-25 19:33N 53°27' E 006°50'0 0.0
2015-Jun-25 18:33N 53°27' E 006°50'0 0.0
2015-Jun-25 17:33N 53°27' E 006°50'0 0.0
2015-Jun-25 16:33N 53°27' E 006°50'0 0.0
2015-Jun-25 15:33N 53°27' E 006°50'0 0.0
2015-Jun-25 14:33N 53°27' E 006°50'0 0.0
2015-Jun-25 13:33N 53°27' E 006°50'0 0.0
2015-Jun-25 12:33N 53°27' E 006°50'0 0.0
2015-Jun-25 11:33N 53°27' E 006°50'0 0.0
2015-Jun-25 10:33N 53°27' E 006°50'0 0.0
2015-Jun-25 09:33N 53°27' E 006°50'0 0.0
2015-Jun-25 08:33N 53°27' E 006°50'0 0.0
2015-Jun-25 07:33N 53°27' E 006°50'0 0.0
2015-Jun-25 06:33N 53°27' E 006°50'0 0.0
2015-Jun-25 05:33N 53°27' E 006°50'0 0.5
2015-Jun-25 04:33N 53°28' E 006°50'7 7.3
2015-Jun-25 03:33N 53°33' E 006°42'10 7.8
2015-Jun-25 02:19N 53°38' E 006°28'  
Track history (hours):
 
Tides and Currents Weather Stations Pressure Air Temp Water Temp Dewpoint Dewpoint Depression Visibility Wind Speed Wind Dir Waves Ship Positions

Serval

Last reported at 2015-Jul-04 23:33 UTC. Time now 2015-Jul-05 00:12 UTC.
Position N 53°32' E 006°43'.

Length 30 m; draft 4.8 m.

Type: . MMSI: 377103000.

Date/timePositionNaut miles runAvg speedWind from/ knotsBaromVisibWave heightAir tempDewpointWater temp
2015-Jul-04 23:33N 53°32' E 006°43'2 1.5
2015-Jul-04 22:33N 53°32' E 006°46'1 0.7
2015-Jul-04 21:33N 53°32' E 006°45'0 0.2
2015-Jul-04 20:33N 53°32' E 006°45'0 0.2
2015-Jul-04 19:33N 53°32' E 006°45'1 0.7
2015-Jul-04 18:33N 53°32' E 006°44'1 1.5
2015-Jul-04 17:33N 53°31' E 006°46'2 1.6
2015-Jul-04 16:33N 53°32' E 006°44'2 1.8
2015-Jul-04 15:33N 53°31' E 006°47'0 0.1
2015-Jul-04 14:33N 53°31' E 006°46'0 0.3
2015-Jul-04 13:33N 53°31' E 006°46'1 0.7
2015-Jul-04 12:33N 53°31' E 006°47'0 0.2
2015-Jul-04 11:33N 53°31' E 006°47'1 0.6
2015-Jul-04 10:33N 53°31' E 006°46'1 0.6
2015-Jul-04 09:33N 53°31' E 006°47'1 1.0
2015-Jul-04 08:33N 53°32' E 006°45'0 0.2
2015-Jul-04 07:33N 53°32' E 006°45'0 0.4
2015-Jul-04 06:33N 53°31' E 006°46'0 0.3
2015-Jul-04 05:33N 53°32' E 006°45'0 0.2
2015-Jul-04 04:33N 53°32' E 006°45'0 0.3
2015-Jul-04 03:33N 53°32' E 006°45'2 2.1
2015-Jul-04 02:33N 53°30' E 006°48'3 3.2
2015-Jul-04 01:33N 53°27' E 006°50'0 0.0
2015-Jul-04 00:30N 53°27' E 006°50'0 0.0
2015-Jul-03 23:24N 53°27' E 006°50'0 0.0
2015-Jul-03 22:33N 53°27' E 006°50'0 0.0
2015-Jul-03 21:33N 53°27' E 006°50'0 0.0
2015-Jul-03 20:33N 53°27' E 006°50'0 0.0
2015-Jul-03 19:33N 53°27' E 006°50'0 0.0
2015-Jul-03 18:33N 53°27' E 006°50'0 0.0
2015-Jul-03 17:33N 53°27' E 006°50'0 0.0
2015-Jul-03 16:24N 53°27' E 006°50'0 0.0
2015-Jul-03 15:30N 53°27' E 006°50'0 0.0
2015-Jul-03 14:30N 53°27' E 006°50'0 0.0
2015-Jul-03 13:33N 53°27' E 006°50'0 0.0
2015-Jul-03 12:33N 53°27' E 006°50'0 0.0
2015-Jul-03 11:33N 53°27' E 006°50'0 0.0
2015-Jul-03 10:33N 53°27' E 006°50'0 0.3
2015-Jul-03 09:33N 53°27' E 006°50'7 7.2
2015-Jul-03 08:33N 53°33' E 006°42'16 1.3
2015-Jul-02 20:05N 53°43' E 006°20'4 5.3
2015-Jul-02 19:21N 53°46' E 006°19'10 0.6
2015-Jul-02 03:20N 53°54' E 006°07'2 2.7
2015-Jul-02 02:33N 53°54' E 006°10'1 0.5
2015-Jul-02 01:32N 53°54' E 006°09'1 0.5
2015-Jul-02 00:26N 53°54' E 006°09'3 2.5
2015-Jul-01 23:21N 53°54' E 006°13'2 2.4
2015-Jul-01 22:33N 53°53' E 006°10'1 0.1
2015-Jul-01 11:06N 53°52' E 006°10'11 0.9
2015-Jun-30 23:17N 53°41' E 006°15'2 1.2
2015-Jun-30 21:18N 53°42' E 006°19'1 1.3
2015-Jun-30 20:23N 53°43' E 006°21'2 2.6
2015-Jun-30 19:30N 53°42' E 006°17'1 0.7
2015-Jun-30 18:33N 53°42' E 006°18'1 1.2
2015-Jun-30 17:31N 53°43' E 006°19'3 2.9
2015-Jun-30 16:19N 53°46' E 006°16'1 1.1
2015-Jun-30 15:25N 53°46' E 006°14'2 2.6
2015-Jun-30 14:33N 53°44' E 006°14'3 2.4
2015-Jun-30 13:31N 53°41' E 006°17'1 0.1
2015-Jun-30 09:10N 53°41' E 006°18'28 1.8
2015-Jun-29 17:12N 53°47' E 007°04'1 1.0
2015-Jun-29 16:33N 53°47' E 007°03'0 0.4
2015-Jun-29 15:28N 53°47' E 007°02'0 0.5
2015-Jun-29 14:32N 53°47' E 007°03'3 2.5
2015-Jun-29 13:28N 53°48' E 007°07'3 0.2
2015-Jun-29 00:23N 53°48' E 007°03'2 0.5
2015-Jun-28 20:23N 53°48' E 007°06'24 0.6
2015-Jun-27 06:27N 53°38' E 006°30'7 7.7
2015-Jun-27 05:33N 53°34' E 006°39'6 6.2
2015-Jun-27 04:33N 53°31' E 006°47'4 4.0
2015-Jun-27 03:33N 53°27' E 006°50'0 0.0
2015-Jun-27 02:33N 53°27' E 006°50'0 0.0
2015-Jun-27 01:33N 53°27' E 006°50'0 0.0
2015-Jun-27 00:33N 53°27' E 006°50'0 0.0
2015-Jun-26 23:33N 53°27' E 006°50'0 0.0
2015-Jun-26 22:33N 53°27' E 006°50'0 0.0
2015-Jun-26 21:33N 53°27' E 006°50'0 0.0
2015-Jun-26 20:33N 53°27' E 006°50'0 0.0
2015-Jun-26 19:33N 53°27' E 006°50'0 0.0
2015-Jun-26 18:33N 53°27' E 006°50'0 0.0
2015-Jun-26 17:33N 53°27' E 006°50'0 0.0
2015-Jun-26 16:33N 53°27' E 006°50'0 0.0
2015-Jun-26 15:33N 53°27' E 006°50'0 0.0
2015-Jun-26 14:33N 53°27' E 006°50'0 0.2
2015-Jun-26 13:33N 53°27' E 006°50'1 0.7
2015-Jun-26 12:33N 53°27' E 006°50'0 0.0
2015-Jun-26 11:33N 53°27' E 006°50'0 0.0
2015-Jun-26 10:33N 53°27' E 006°50'0 0.0
2015-Jun-26 09:33N 53°27' E 006°50'0 0.0
2015-Jun-26 08:33N 53°27' E 006°50'0 0.0
2015-Jun-26 07:33N 53°27' E 006°50'0 0.0
2015-Jun-26 06:31N 53°27' E 006°50'0 0.0
2015-Jun-26 05:33N 53°27' E 006°50'0 0.0
2015-Jun-26 04:33N 53°27' E 006°50'0 0.0
2015-Jun-26 03:33N 53°27' E 006°50'0 0.0
2015-Jun-26 02:33N 53°27' E 006°50'0 0.0
2015-Jun-26 01:33N 53°27' E 006°50'0 0.0
2015-Jun-26 00:33N 53°27' E 006°50'0 0.0
2015-Jun-25 23:33N 53°27' E 006°50'0 0.0
2015-Jun-25 22:33N 53°27' E 006°50'0 0.0
2015-Jun-25 21:33N 53°27' E 006°50'0 0.0
2015-Jun-25 20:33N 53°27' E 006°50'0 0.0
2015-Jun-25 19:33N 53°27' E 006°50'0 0.0
2015-Jun-25 18:33N 53°27' E 006°50'0 0.0
2015-Jun-25 17:33N 53°27' E 006°50'0 0.0
2015-Jun-25 16:33N 53°27' E 006°50'0 0.0
2015-Jun-25 15:33N 53°27' E 006°50'0 0.0
2015-Jun-25 14:33N 53°27' E 006°50'0 0.0
2015-Jun-25 13:33N 53°27' E 006°50'0 0.0
2015-Jun-25 12:33N 53°27' E 006°50'0 0.0
2015-Jun-25 11:33N 53°27' E 006°50'0 0.0
2015-Jun-25 10:33N 53°27' E 006°50'0 0.0
2015-Jun-25 09:33N 53°27' E 006°50'0 0.0
2015-Jun-25 08:33N 53°27' E 006°50'0 0.0
2015-Jun-25 07:33N 53°27' E 006°50'0 0.0
2015-Jun-25 06:33N 53°27' E 006°50'0 0.0
2015-Jun-25 05:33N 53°27' E 006°50'0 0.5
2015-Jun-25 04:33N 53°28' E 006°50'7 7.3
2015-Jun-25 03:33N 53°33' E 006°42'10 7.8
2015-Jun-25 02:19N 53°38' E 006°28'  

Dump ship's entire track history